createdAt,value
2023-05-01T00:01:08.219Z,4.60
2023-05-01T00:03:35.506Z,4.30
2023-05-01T00:06:05.836Z,4.63
2023-05-01T00:08:35.362Z,9.88
2023-05-01T00:11:05.796Z,6.15
2023-05-01T00:13:32.501Z,7.70
2023-05-01T00:15:59.316Z,6.65
2023-05-01T00:18:26.392Z,5.65
2023-05-01T00:20:53.089Z,5.97
2023-05-01T00:23:20.014Z,4.50
2023-05-01T00:25:47.017Z,5.60
2023-05-01T00:28:14.025Z,7.32
2023-05-01T00:30:41.135Z,8.57
2023-05-01T00:33:08.238Z,8.60
2023-05-01T00:35:35.904Z,8.57
2023-05-01T00:38:02.791Z,4.30
2023-05-01T00:40:29.648Z,4.47
2023-05-01T00:42:56.828Z,7.68
2023-05-01T00:45:28.689Z,6.15
2023-05-01T00:47:55.792Z,7.30
2023-05-01T00:50:25.088Z,6.95
2023-05-01T00:52:52.090Z,4.30
2023-05-01T00:55:18.968Z,4.68
2023-05-01T00:57:46.556Z,4.88
2023-05-01T01:00:19.549Z,9.43
2023-05-01T01:02:47.072Z,13.52
2023-05-01T01:05:16.332Z,5.80
2023-05-01T01:08:09.836Z,6.15
2023-05-01T01:10:44.538Z,5.90
2023-05-01T01:13:39.530Z,7.40
2023-05-01T01:16:37.528Z,5.38
2023-05-01T01:19:37.456Z,6.78
2023-05-01T01:22:12.460Z,6.28
2023-05-01T01:25:23.605Z,6.82
2023-05-01T01:28:14.036Z,7.63
2023-05-01T01:31:12.783Z,5.75
2023-05-01T01:34:02.544Z,5.80
2023-05-01T01:36:49.697Z,7.97
2023-05-01T01:39:24.424Z,5.80
2023-05-01T01:41:59.453Z,5.88
2023-05-01T01:44:37.774Z,5.53
2023-05-01T01:47:08.982Z,7.03
2023-05-01T01:49:38.603Z,5.10
2023-05-01T01:52:10.814Z,7.93
2023-05-01T01:54:43.715Z,5.95
2023-05-01T01:57:13.698Z,7.15
2023-05-01T01:59:42.606Z,8.10
2023-05-01T02:02:10.485Z,5.20
2023-05-01T02:04:39.754Z,5.05
2023-05-01T02:07:07.714Z,9.05
2023-05-01T02:09:35.759Z,5.78
2023-05-01T02:12:05.906Z,6.18
2023-05-01T02:14:33.810Z,4.93
2023-05-01T02:17:05.000Z,6.70
2023-05-01T02:19:33.820Z,5.53
2023-05-01T02:22:05.091Z,4.28
2023-05-01T02:24:35.816Z,6.57
2023-05-01T02:27:10.853Z,6.97
2023-05-01T02:29:37.950Z,14.55
2023-05-01T02:32:09.512Z,5.93
2023-05-01T02:34:38.689Z,6.53
2023-05-01T02:37:11.349Z,8.50
2023-05-01T02:39:40.922Z,9.75
2023-05-01T02:42:12.374Z,4.95
2023-05-01T02:44:43.718Z,5.85
2023-05-01T02:47:14.334Z,6.57
2023-05-01T02:49:42.378Z,7.13
2023-05-01T02:52:09.494Z,6.43
2023-05-01T02:54:39.241Z,5.43
2023-05-01T02:57:06.153Z,9.20
2023-05-01T02:59:34.110Z,6.63
2023-05-01T03:02:03.699Z,6.47
2023-05-01T03:04:30.805Z,8.68
2023-05-01T03:06:57.660Z,5.70
2023-05-01T03:09:24.547Z,8.25
2023-05-01T03:11:54.993Z,7.95
2023-05-01T03:14:21.966Z,6.20
2023-05-01T03:16:49.169Z,5.95
2023-05-01T03:19:16.145Z,7.20
2023-05-01T03:21:43.033Z,12.52
2023-05-01T03:24:10.250Z,11.70
2023-05-01T03:26:37.015Z,10.98
2023-05-01T03:29:13.693Z,7.90
2023-05-01T03:31:40.491Z,8.15
2023-05-01T03:34:09.446Z,6.75
2023-05-01T03:36:38.633Z,8.27
2023-05-01T03:39:05.900Z,6.05
2023-05-01T03:41:36.191Z,5.45
2023-05-01T03:44:04.126Z,5.70
2023-05-01T03:46:31.054Z,5.05
2023-05-01T03:48:57.978Z,7.43
2023-05-01T03:51:24.858Z,7.28
2023-05-01T03:53:56.805Z,6.93
2023-05-01T03:56:28.954Z,8.52
2023-05-01T03:58:57.832Z,12.90
2023-05-01T04:01:27.400Z,6.25
2023-05-01T04:03:54.353Z,21.23
2023-05-01T04:06:23.823Z,6.18
2023-05-01T04:08:52.737Z,4.75
2023-05-01T04:11:19.435Z,8.07
2023-05-01T04:13:46.187Z,6.65
2023-05-01T04:16:14.370Z,6.10
2023-05-01T04:18:41.214Z,6.15
2023-05-01T04:21:08.175Z,6.13
2023-05-01T04:23:40.055Z,9.30
2023-05-01T04:26:09.625Z,8.23
2023-05-01T04:28:38.866Z,11.48
2023-05-01T04:31:06.230Z,7.07
2023-05-01T04:33:32.984Z,10.70
2023-05-01T04:35:59.837Z,9.43
2023-05-01T04:38:30.420Z,8.65
2023-05-01T04:40:59.894Z,6.90
2023-05-01T04:43:26.806Z,7.07
2023-05-01T04:45:54.812Z,8.35
2023-05-01T04:48:27.013Z,8.23
2023-05-01T04:50:58.868Z,6.40
2023-05-01T04:53:25.646Z,7.05
2023-05-01T04:55:52.902Z,7.70
2023-05-01T04:58:19.875Z,10.07
2023-05-01T05:00:48.727Z,10.02
2023-05-01T05:03:19.174Z,8.07
2023-05-01T05:05:47.027Z,7.32
2023-05-01T05:08:19.000Z,10.85
2023-05-01T05:10:46.059Z,6.63
2023-05-01T05:13:13.078Z,15.07
2023-05-01T05:15:42.554Z,8.45
2023-05-01T05:18:09.784Z,8.10
2023-05-01T05:20:40.335Z,8.63
2023-05-01T05:23:08.418Z,11.70
2023-05-01T05:25:38.236Z,10.68
2023-05-01T05:28:07.530Z,12.10
2023-05-01T05:30:37.382Z,12.30
2023-05-01T05:33:07.338Z,9.15
2023-05-01T05:35:39.332Z,7.72
2023-05-01T05:38:08.519Z,12.15
2023-05-01T05:40:35.466Z,11.40
2023-05-01T05:43:05.318Z,8.07
2023-05-01T05:45:37.365Z,6.95
2023-05-01T05:48:07.252Z,8.55
2023-05-01T05:50:34.054Z,8.40
2023-05-01T05:53:01.319Z,13.98
2023-05-01T05:55:28.470Z,9.02
2023-05-01T05:57:57.867Z,12.85
2023-05-01T06:00:24.887Z,8.82
2023-05-01T06:02:52.059Z,12.15
2023-05-01T06:05:19.895Z,13.50
2023-05-01T06:07:48.129Z,10.68
2023-05-01T06:10:15.250Z,12.30
2023-05-01T06:12:48.312Z,7.80
2023-05-01T06:15:18.964Z,10.20
2023-05-01T06:17:48.620Z,13.65
2023-05-01T06:20:18.270Z,8.18
2023-05-01T06:22:46.854Z,10.02
2023-05-01T06:25:16.475Z,8.35
2023-05-01T06:27:43.497Z,11.90
2023-05-01T06:30:14.863Z,12.95
2023-05-01T06:32:50.629Z,9.50
2023-05-01T06:35:22.174Z,11.02
2023-05-01T06:37:51.215Z,8.90
2023-05-01T06:40:20.684Z,15.32
2023-05-01T06:42:47.694Z,11.40
2023-05-01T06:45:14.769Z,12.85
2023-05-01T06:47:41.663Z,8.52
2023-05-01T06:50:09.186Z,8.88
2023-05-01T06:52:35.935Z,9.80
2023-05-01T06:55:03.885Z,12.63
2023-05-01T06:57:33.189Z,8.68
2023-05-01T07:00:00.307Z,12.88
2023-05-01T07:02:28.422Z,14.50
2023-05-01T07:04:57.997Z,12.55
2023-05-01T07:07:26.779Z,9.15
2023-05-01T07:09:56.068Z,14.20
2023-05-01T07:12:25.847Z,10.20
2023-05-01T07:14:57.101Z,11.13
2023-05-01T07:17:26.732Z,8.98
2023-05-01T07:19:53.715Z,9.25
2023-05-01T07:22:21.874Z,9.98
2023-05-01T07:24:48.701Z,11.00
2023-05-01T07:27:18.114Z,10.98
2023-05-01T07:29:47.677Z,12.15
2023-05-01T07:32:16.357Z,9.88
2023-05-01T07:34:43.248Z,9.63
2023-05-01T07:37:13.094Z,11.48
2023-05-01T07:39:42.227Z,10.20
2023-05-01T07:42:09.096Z,9.23
2023-05-01T07:44:36.410Z,8.23
2023-05-01T07:47:04.493Z,10.40
2023-05-01T07:49:38.898Z,8.50
2023-05-01T07:52:09.040Z,7.32
2023-05-01T07:54:39.033Z,6.38
2023-05-01T07:57:09.101Z,10.65
2023-05-01T07:59:38.048Z,7.10
2023-05-01T08:02:05.156Z,10.50
2023-05-01T08:04:32.580Z,11.68
2023-05-01T08:07:02.139Z,8.32
2023-05-01T08:09:31.683Z,8.88
2023-05-01T08:12:00.638Z,12.10
2023-05-01T08:14:27.417Z,10.23
2023-05-01T08:16:55.578Z,9.35
2023-05-01T08:19:23.217Z,8.20
2023-05-01T08:21:50.126Z,7.35
2023-05-01T08:24:16.765Z,9.48
2023-05-01T08:26:45.631Z,10.85
2023-05-01T08:29:12.909Z,8.27
2023-05-01T08:31:39.572Z,13.20
2023-05-01T08:34:08.917Z,8.55
2023-05-01T08:36:40.385Z,11.60
2023-05-01T08:39:06.986Z,9.07
2023-05-01T08:41:34.776Z,9.48
2023-05-01T08:44:04.910Z,7.97
2023-05-01T08:46:41.352Z,9.35
2023-05-01T08:49:09.623Z,10.77
2023-05-01T08:51:39.606Z,9.73
2023-05-01T08:54:08.387Z,9.23
2023-05-01T08:56:39.113Z,8.98
2023-05-01T08:59:07.776Z,8.20
2023-05-01T09:01:35.767Z,8.05
2023-05-01T09:04:03.952Z,9.32
2023-05-01T09:06:33.013Z,9.73
2023-05-01T09:09:00.076Z,7.25
2023-05-01T09:11:27.130Z,10.10
2023-05-01T09:13:54.203Z,10.00
2023-05-01T09:16:23.631Z,11.57
2023-05-01T09:18:53.524Z,11.27
2023-05-01T09:21:20.120Z,9.43
2023-05-01T09:23:51.322Z,9.50
2023-05-01T09:26:18.247Z,9.52
2023-05-01T09:28:52.120Z,10.20
2023-05-01T09:31:28.775Z,6.47
2023-05-01T09:34:03.463Z,9.10
2023-05-01T09:36:32.480Z,14.38
2023-05-01T09:39:02.643Z,7.13
2023-05-01T09:41:33.093Z,7.50
2023-05-01T09:43:59.962Z,11.30
2023-05-01T09:46:27.086Z,9.60
2023-05-01T09:48:59.147Z,7.60
2023-05-01T09:51:35.047Z,7.85
2023-05-01T09:54:05.916Z,9.55
2023-05-01T09:56:47.727Z,8.48
2023-05-01T09:59:18.161Z,9.38
2023-05-01T10:01:50.386Z,10.07
2023-05-01T10:04:17.375Z,9.55
2023-05-01T10:06:44.055Z,9.73
2023-05-01T10:09:16.994Z,13.30
2023-05-01T10:11:57.299Z,11.38
2023-05-01T10:14:25.157Z,9.82
2023-05-01T10:16:54.521Z,8.68
2023-05-01T10:19:23.701Z,12.85
2023-05-01T10:21:50.479Z,11.15
2023-05-01T10:24:20.360Z,13.50
2023-05-01T10:26:53.784Z,11.88
2023-05-01T10:29:23.328Z,11.07
2023-05-01T10:31:52.276Z,9.65
2023-05-01T10:34:24.167Z,11.15
2023-05-01T10:37:00.350Z,11.65
2023-05-01T10:39:34.937Z,12.15
2023-05-01T10:42:05.918Z,9.52
2023-05-01T10:44:34.796Z,13.20
2023-05-01T10:47:24.754Z,10.10
2023-05-01T10:50:16.152Z,9.32
2023-05-01T10:53:14.763Z,8.15
2023-05-01T10:55:43.977Z,11.38
2023-05-01T10:58:12.074Z,11.43
2023-05-01T11:00:38.740Z,12.80
2023-05-01T11:03:25.837Z,8.90
2023-05-01T11:06:04.793Z,10.07
2023-05-01T11:08:32.355Z,9.77
2023-05-01T11:11:24.081Z,9.52
2023-05-01T11:14:00.000Z,13.18
2023-05-01T11:16:39.422Z,9.90
2023-05-01T11:19:12.023Z,9.27
2023-05-01T11:21:40.511Z,11.07
2023-05-01T11:24:08.054Z,8.20
2023-05-01T11:26:42.261Z,7.93
2023-05-01T11:29:10.833Z,9.18
2023-05-01T11:31:38.425Z,14.00
2023-05-01T11:34:08.439Z,9.55
2023-05-01T11:36:54.566Z,9.65
2023-05-01T11:39:25.951Z,10.85
2023-05-01T11:42:06.757Z,6.32
2023-05-01T11:44:33.439Z,9.55
2023-05-01T11:47:01.399Z,10.93
2023-05-01T11:49:30.768Z,9.65
2023-05-01T11:51:58.286Z,12.20
2023-05-01T11:54:25.033Z,7.07
2023-05-01T11:57:03.670Z,8.80
2023-05-01T11:59:32.837Z,9.10
2023-05-01T12:01:59.417Z,8.88
2023-05-01T12:04:31.300Z,11.20
2023-05-01T12:06:59.102Z,10.57
2023-05-01T12:09:29.535Z,9.35
2023-05-01T12:11:59.543Z,13.57
2023-05-01T12:14:26.333Z,9.02
2023-05-01T12:16:54.070Z,7.72
2023-05-01T12:19:23.214Z,7.85
2023-05-01T12:22:05.414Z,6.43
2023-05-01T12:24:31.956Z,14.38
2023-05-01T12:27:04.159Z,9.18
2023-05-01T12:29:41.595Z,7.03
2023-05-01T12:32:09.167Z,5.85
2023-05-01T12:34:38.669Z,9.77
2023-05-01T12:37:07.872Z,9.00
2023-05-01T12:39:39.631Z,8.60
2023-05-01T12:42:13.346Z,7.40
2023-05-01T12:44:40.027Z,12.15
2023-05-01T12:47:08.870Z,10.30
2023-05-01T12:49:40.700Z,13.85
2023-05-01T12:52:11.666Z,11.45
2023-05-01T12:54:40.654Z,12.25
2023-05-01T12:57:19.526Z,12.30
2023-05-01T12:59:47.331Z,13.00
2023-05-01T13:02:17.661Z,7.57
2023-05-01T13:04:44.881Z,12.98
2023-05-01T13:07:20.672Z,9.38
2023-05-01T13:09:54.459Z,13.00
2023-05-01T13:12:21.510Z,8.43
2023-05-01T13:14:48.479Z,11.85
2023-05-01T13:17:26.131Z,6.18
2023-05-01T13:19:57.096Z,9.38
2023-05-01T13:22:40.000Z,10.85
2023-05-01T13:25:19.745Z,7.68
2023-05-01T13:27:51.121Z,8.30
2023-05-01T13:30:30.758Z,8.65
2023-05-01T13:33:00.600Z,10.90
2023-05-01T13:35:27.467Z,8.65
2023-05-01T13:37:55.212Z,9.75
2023-05-01T13:40:24.332Z,13.98
2023-05-01T13:42:53.152Z,13.25
2023-05-01T13:45:21.461Z,9.40
2023-05-01T13:47:52.010Z,9.20
2023-05-01T13:50:18.826Z,9.60
2023-05-01T13:52:48.611Z,8.32
2023-05-01T13:55:17.603Z,8.38
2023-05-01T13:57:44.613Z,9.80
2023-05-01T14:00:19.209Z,7.25
2023-05-01T14:02:53.055Z,8.13
2023-05-01T14:05:26.795Z,8.48
2023-05-01T14:07:58.545Z,10.27
2023-05-01T14:10:28.272Z,7.90
2023-05-01T14:12:56.885Z,8.40
2023-05-01T14:15:24.720Z,8.70
2023-05-01T14:17:51.916Z,13.70
2023-05-01T14:20:18.662Z,8.07
2023-05-01T14:22:51.759Z,6.90
2023-05-01T14:25:33.020Z,9.68
2023-05-01T14:28:01.281Z,7.60
2023-05-01T14:30:29.093Z,7.80
2023-05-01T14:32:56.732Z,10.40
2023-05-01T14:35:27.989Z,10.00
2023-05-01T14:37:55.262Z,7.70
2023-05-01T14:40:27.584Z,10.30
2023-05-01T14:42:57.848Z,7.93
2023-05-01T14:45:24.463Z,8.55
2023-05-01T14:47:51.111Z,7.15
2023-05-01T14:50:22.952Z,9.23
2023-05-01T14:52:58.126Z,9.18
2023-05-01T14:55:33.478Z,10.23
2023-05-01T14:58:01.233Z,10.40
2023-05-01T15:00:28.084Z,9.73
2023-05-01T15:02:57.602Z,10.65
2023-05-01T15:05:28.315Z,8.45
2023-05-01T15:07:56.698Z,9.48
2023-05-01T15:10:24.022Z,6.85
2023-05-01T15:12:51.484Z,9.07
2023-05-01T15:15:21.385Z,7.75
2023-05-01T15:17:50.577Z,9.70
2023-05-01T15:20:17.397Z,6.82
2023-05-01T15:22:43.949Z,7.72
2023-05-01T15:25:13.516Z,10.63
2023-05-01T15:27:40.164Z,8.35
2023-05-01T15:30:08.744Z,7.65
2023-05-01T15:32:38.045Z,7.07
2023-05-01T15:35:04.989Z,7.35
2023-05-01T15:37:32.196Z,7.38
2023-05-01T15:39:59.655Z,6.85
2023-05-01T15:42:26.348Z,7.00
2023-05-01T15:44:55.228Z,5.65
2023-05-01T15:47:24.150Z,5.90
2023-05-01T15:49:50.803Z,6.70
2023-05-01T15:52:17.396Z,6.93
2023-05-01T15:54:46.254Z,7.65
2023-05-01T15:57:13.671Z,6.28
2023-05-01T15:59:40.879Z,6.63
2023-05-01T16:02:08.924Z,9.32
2023-05-01T16:04:36.145Z,8.82
2023-05-01T16:07:11.516Z,6.97
2023-05-01T16:09:38.156Z,9.07
2023-05-01T16:12:04.905Z,6.53
2023-05-01T16:14:31.753Z,10.25
2023-05-01T16:17:01.486Z,6.35
2023-05-01T16:19:32.128Z,7.38
2023-05-01T16:21:59.280Z,10.35
2023-05-01T16:24:28.630Z,8.90
2023-05-01T16:26:55.250Z,11.07
2023-05-01T16:29:26.889Z,9.68
2023-05-01T16:31:53.558Z,9.38
2023-05-01T16:34:24.149Z,9.50
2023-05-01T16:36:53.078Z,9.50
2023-05-01T16:39:24.325Z,9.75
2023-05-01T16:41:52.926Z,7.95
2023-05-01T16:44:23.371Z,11.20
2023-05-01T16:46:54.525Z,14.07
2023-05-01T16:49:22.200Z,9.68
2023-05-01T16:51:49.248Z,11.38
2023-05-01T16:54:16.409Z,8.90
2023-05-01T16:56:43.042Z,8.32
2023-05-01T16:59:11.731Z,9.07
2023-05-01T17:01:38.363Z,10.13
2023-05-01T17:04:07.568Z,8.45
2023-05-01T17:06:36.424Z,10.63
2023-05-01T17:09:03.367Z,8.13
2023-05-01T17:11:31.875Z,8.43
2023-05-01T17:14:03.705Z,9.82
2023-05-01T17:16:30.528Z,10.65
2023-05-01T17:18:59.755Z,10.05
2023-05-01T17:21:29.680Z,10.35
2023-05-01T17:23:56.332Z,8.80
2023-05-01T17:26:22.963Z,13.10
2023-05-01T17:28:50.598Z,8.23
2023-05-01T17:31:18.805Z,10.00
2023-05-01T17:33:51.920Z,9.40
2023-05-01T17:36:21.381Z,8.95
2023-05-01T17:38:47.959Z,8.25
2023-05-01T17:41:16.822Z,9.35
2023-05-01T17:43:46.188Z,10.52
2023-05-01T17:46:16.822Z,9.95
2023-05-01T17:48:43.540Z,15.05
2023-05-01T17:51:13.953Z,12.20
2023-05-01T17:53:40.966Z,12.98
2023-05-01T17:56:07.820Z,10.32
2023-05-01T17:58:34.562Z,11.32
2023-05-01T18:01:01.283Z,15.82
2023-05-01T18:03:28.646Z,11.82
2023-05-01T18:05:55.496Z,11.80
2023-05-01T18:08:22.053Z,12.73
2023-05-01T18:10:48.656Z,11.95
2023-05-01T18:13:16.975Z,12.02
2023-05-01T18:15:44.014Z,10.95
2023-05-01T18:18:10.940Z,12.30
2023-05-01T18:20:37.726Z,14.65
2023-05-01T18:23:04.325Z,11.57
2023-05-01T18:25:30.870Z,13.32
2023-05-01T18:27:58.719Z,13.77
2023-05-01T18:30:25.521Z,12.85
2023-05-01T18:32:52.141Z,14.43
2023-05-01T18:35:19.082Z,14.90
2023-05-01T18:37:46.567Z,16.30
2023-05-01T18:40:13.416Z,15.90
2023-05-01T18:42:41.637Z,14.93
2023-05-01T18:45:10.165Z,14.70
2023-05-01T18:47:39.433Z,14.40
2023-05-01T18:50:06.937Z,17.20
2023-05-01T18:52:37.135Z,14.05
2023-05-01T18:55:04.083Z,17.30
2023-05-01T18:57:32.872Z,16.52
2023-05-01T19:00:01.297Z,15.10
2023-05-01T19:02:28.259Z,16.73
2023-05-01T19:04:57.953Z,17.10
2023-05-01T19:07:28.176Z,17.40
2023-05-01T19:09:57.585Z,21.75
2023-05-01T19:12:24.376Z,18.38
2023-05-01T19:14:50.978Z,18.63
2023-05-01T19:17:18.464Z,17.92
2023-05-01T19:19:45.038Z,15.88
2023-05-01T19:22:11.668Z,18.73
2023-05-01T19:24:38.390Z,20.27
2023-05-01T19:27:04.994Z,19.48
2023-05-01T19:29:32.119Z,21.45
2023-05-01T19:32:00.451Z,22.35
2023-05-01T19:34:29.946Z,23.60
2023-05-01T19:37:00.396Z,24.80
2023-05-01T19:39:27.226Z,21.27
2023-05-01T19:41:56.059Z,21.58
2023-05-01T19:44:22.665Z,22.25
2023-05-01T19:46:54.586Z,24.55
2023-05-01T19:49:22.214Z,28.10
2023-05-01T19:51:48.958Z,28.98
2023-05-01T19:54:18.256Z,28.13
2023-05-01T19:56:46.675Z,26.33
2023-05-01T19:59:13.768Z,29.23
2023-05-01T20:01:40.803Z,30.92
2023-05-01T20:04:08.204Z,28.83
2023-05-01T20:06:35.207Z,30.77
2023-05-01T20:09:04.536Z,32.35
2023-05-01T20:11:41.328Z,32.92
2023-05-01T20:14:08.442Z,29.92
2023-05-01T20:16:40.753Z,33.80
2023-05-01T20:19:07.709Z,30.73
2023-05-01T20:21:34.717Z,34.20
2023-05-01T20:24:01.703Z,31.00
2023-05-01T20:26:28.507Z,33.10
2023-05-01T20:28:56.873Z,34.05
2023-05-01T20:31:23.848Z,33.38
2023-05-01T20:33:50.793Z,34.28
2023-05-01T20:36:17.968Z,34.85
2023-05-01T20:38:46.333Z,33.38
2023-05-01T20:41:13.596Z,35.00
2023-05-01T20:43:40.624Z,34.45
2023-05-01T20:46:07.349Z,34.00
2023-05-01T20:48:34.221Z,34.88
2023-05-01T20:51:00.990Z,38.38
2023-05-01T20:53:27.887Z,36.83
2023-05-01T20:55:56.872Z,38.70
2023-05-01T20:58:23.623Z,39.58
2023-05-01T21:00:54.040Z,40.63
2023-05-01T21:03:23.495Z,39.20
2023-05-01T21:05:50.463Z,40.05
2023-05-01T21:08:17.196Z,40.97
2023-05-01T21:10:44.124Z,42.38
2023-05-01T21:13:11.048Z,42.72
2023-05-01T21:15:41.381Z,42.88
2023-05-01T21:18:13.666Z,41.83
2023-05-01T21:20:45.972Z,44.13
2023-05-01T21:23:14.947Z,40.80
2023-05-01T21:25:41.783Z,39.67
2023-05-01T21:28:14.539Z,44.63
2023-05-01T21:30:41.929Z,44.33
2023-05-01T21:33:13.342Z,42.60
2023-05-01T21:35:46.822Z,43.85
2023-05-01T21:38:14.187Z,45.30
2023-05-01T21:40:42.479Z,46.00
2023-05-01T21:43:10.210Z,43.78
2023-05-01T21:45:42.845Z,44.75
2023-05-01T21:48:13.704Z,39.33
2023-05-01T21:50:42.761Z,42.25
2023-05-01T21:53:09.535Z,43.13
2023-05-01T21:55:36.385Z,41.22
2023-05-01T21:58:05.711Z,36.13
2023-05-01T22:00:33.504Z,36.13
2023-05-01T22:03:07.916Z,40.47
2023-05-01T22:05:34.808Z,38.60
2023-05-01T22:08:01.696Z,37.53
2023-05-01T22:10:29.877Z,42.35
2023-05-01T22:12:56.631Z,40.38
2023-05-01T22:15:23.486Z,35.97
2023-05-01T22:17:50.339Z,31.30
2023-05-01T22:20:17.454Z,34.25
2023-05-01T22:22:44.252Z,30.50
2023-05-01T22:25:12.097Z,30.27
2023-05-01T22:27:38.846Z,31.95
2023-05-01T22:30:06.265Z,32.33
2023-05-01T22:32:33.420Z,33.13
2023-05-01T22:35:02.627Z,33.58
2023-05-01T22:37:29.548Z,30.40
2023-05-01T22:39:56.799Z,28.67
2023-05-01T22:42:25.861Z,30.70
2023-05-01T22:44:52.637Z,29.50
2023-05-01T22:47:19.428Z,31.88
2023-05-01T22:49:46.211Z,31.90
2023-05-01T22:52:12.921Z,28.52
2023-05-01T22:54:39.812Z,30.65
2023-05-01T22:57:07.264Z,35.40
2023-05-01T22:59:34.126Z,32.83
2023-05-01T23:02:05.018Z,24.38
2023-05-01T23:04:32.598Z,22.45
2023-05-01T23:06:59.295Z,23.67
2023-05-01T23:09:32.621Z,22.02
2023-05-01T23:11:59.441Z,26.33
2023-05-01T23:14:26.325Z,25.20
2023-05-01T23:16:53.189Z,22.98
2023-05-01T23:19:24.135Z,24.50
2023-05-01T23:22:04.364Z,24.20
2023-05-01T23:24:42.859Z,28.00
2023-05-01T23:27:12.516Z,24.90
2023-05-01T23:29:43.923Z,26.77
2023-05-01T23:32:25.045Z,26.08
2023-05-01T23:34:53.618Z,24.58
2023-05-01T23:37:20.761Z,28.65
2023-05-01T23:39:47.933Z,24.55
2023-05-01T23:42:17.054Z,26.48
2023-05-01T23:44:43.902Z,25.88
2023-05-01T23:47:11.149Z,26.05
2023-05-01T23:49:38.377Z,30.33
2023-05-01T23:52:06.844Z,29.30
2023-05-01T23:54:33.654Z,26.92
2023-05-01T23:57:03.502Z,26.20
2023-05-01T23:59:30.240Z,25.75
